Time;durP1;ratioP1;P1;durP2;ratioP2;P2;SDS_P1;SDS_P2;PMS_P1;PMS_P2;Temp;Humidity;BMP_temperature;BMP_pressure;BME280_temperature;BME280_humidity;BME280_pressure;Samples;Min_cycle;Max_cycle;Signal;HPM_P1;HPM_P2
2022/12/19 00:00:22;;;;;;;16.92;3.60;;;;;;;;;;6246192;23;20004;-68
2022/12/19 00:02:49;;;;;;;17.27;4.50;;;;;;;;;;6245601;23;20004;-68
2022/12/19 00:05:15;;;;;;;16.60;3.10;;;;;;;;;;6245820;23;20445;-68
2022/12/19 00:07:41;;;;;;;12.13;2.83;;;;;;;;;;6246160;23;20000;-68
2022/12/19 00:10:07;;;;;;;10.40;3.05;;;;;;;;;;6245421;23;20083;-68
2022/12/19 00:12:33;;;;;;;9.43;2.40;;;;;;;;;;6245525;23;20007;-68
2022/12/19 00:14:59;;;;;;;10.25;3.13;;;;;;;;;;6245622;23;20012;-68
2022/12/19 00:17:26;;;;;;;10.50;2.33;;;;;;;;;;6245960;23;20091;-68
2022/12/19 00:19:52;;;;;;;9.43;2.72;;;;;;;;;;6245133;23;20004;-68
2022/12/19 00:22:18;;;;;;;9.18;2.33;;;;;;;;;;6245719;23;20438;-68
2022/12/19 00:24:44;;;;;;;15.55;2.88;;;;;;;;;;6245226;23;20087;-68
2022/12/19 00:27:10;;;;;;;11.18;2.38;;;;;;;;;;6245653;23;20334;-68
2022/12/19 00:29:36;;;;;;;16.35;2.88;;;;;;;;;;6245879;23;20019;-68
2022/12/19 00:32:02;;;;;;;19.90;3.47;;;;;;;;;;6245355;23;20011;-68
2022/12/19 00:34:28;;;;;;;10.68;3.10;;;;;;;;;;6245693;23;20027;-68
2022/12/19 00:36:55;;;;;;;14.40;3.20;;;;;;;;;;6243666;23;20454;-68
2022/12/19 00:39:21;;;;;;;9.07;2.63;;;;;;;;;;6245434;23;20007;-68
2022/12/19 00:41:47;;;;;;;9.40;2.55;;;;;;;;;;6245412;23;20004;-69
2022/12/19 00:44:14;;;;;;;5.45;2.38;;;;;;;;;;6244101;23;20513;-69
2022/12/19 00:46:41;;;;;;;12.73;2.67;;;;;;;;;;6245769;22;20007;-69
2022/12/19 00:49:07;;;;;;;7.93;2.45;;;;;;;;;;6245347;23;20008;-69
2022/12/19 00:51:34;;;;;;;5.72;2.45;;;;;;;;;;6245561;23;20015;-69
2022/12/19 00:54:00;;;;;;;9.50;1.98;;;;;;;;;;6244964;23;20004;-69
2022/12/19 00:56:30;;;;;;;6.20;1.73;;;;;;;;;;6245658;22;20087;-69
2022/12/19 00:58:56;;;;;;;3.78;1.70;;;;;;;;;;6244965;23;20004;-69
2022/12/19 01:01:22;;;;;;;6.88;1.65;;;;;;;;;;6245304;23;20011;-69
2022/12/19 01:03:49;;;;;;;8.38;1.65;;;;;;;;;;6245513;23;20004;-69
2022/12/19 01:06:15;;;;;;;5.60;1.67;;;;;;;;;;6245066;23;20005;-69
2022/12/19 01:08:41;;;;;;;3.22;1.50;;;;;;;;;;6243804;23;20007;-69
2022/12/19 01:11:07;;;;;;;5.43;1.63;;;;;;;;;;6243399;23;19996;-69
2022/12/19 01:13:35;;;;;;;6.68;1.60;;;;;;;;;;6245408;22;20043;-69
2022/12/19 01:16:06;;;;;;;7.40;1.73;;;;;;;;;;6243499;23;20399;-69
2022/12/19 01:18:32;;;;;;;8.57;1.75;;;;;;;;;;6245148;23;20004;-69
2022/12/19 01:20:59;;;;;;;4.30;1.48;;;;;;;;;;6244807;22;20066;-69
2022/12/19 01:23:26;;;;;;;2.97;1.60;;;;;;;;;;6243354;23;20011;-69
2022/12/19 01:25:53;;;;;;;5.55;1.60;;;;;;;;;;6243666;23;20000;-69
2022/12/19 01:28:19;;;;;;;8.35;1.85;;;;;;;;;;6243503;23;20004;-69
2022/12/19 01:30:45;;;;;;;3.80;1.85;;;;;;;;;;6244910;23;19996;-69
2022/12/19 01:33:12;;;;;;;6.35;2.38;;;;;;;;;;6244810;23;20395;-69
2022/12/19 01:35:39;;;;;;;6.93;2.60;;;;;;;;;;6244755;23;20083;-69
2022/12/19 01:38:05;;;;;;;8.00;2.10;;;;;;;;;;6244843;23;20035;-69
2022/12/19 01:40:32;;;;;;;8.30;2.55;;;;;;;;;;6245226;22;20034;-69
2022/12/19 01:43:00;;;;;;;9.43;2.40;;;;;;;;;;6244733;23;20347;-69
2022/12/19 01:45:30;;;;;;;8.27;1.90;;;;;;;;;;6245008;23;20000;-69
2022/12/19 01:48:12;;;;;;;5.93;1.92;;;;;;;;;;6244945;22;20004;-69
2022/12/19 01:50:38;;;;;;;9.43;1.92;;;;;;;;;;6243094;23;20083;-69
2022/12/19 01:53:06;;;;;;;5.32;1.83;;;;;;;;;;6243143;23;20008;-69
2022/12/19 01:55:33;;;;;;;7.40;2.10;;;;;;;;;;6245257;22;20070;-69
2022/12/19 01:57:59;;;;;;;10.65;2.45;;;;;;;;;;6244816;23;20004;-69
2022/12/19 02:00:25;;;;;;;11.82;2.38;;;;;;;;;;6244814;23;20079;-69
2022/12/19 02:02:53;;;;;;;9.48;2.42;;;;;;;;;;6244854;23;20004;-69
2022/12/19 02:05:19;;;;;;;10.10;2.40;;;;;;;;;;6242218;23;20059;-69
2022/12/19 02:07:48;;;;;;;10.45;3.00;;;;;;;;;;6243342;23;20000;-69
2022/12/19 02:10:14;;;;;;;13.13;2.65;;;;;;;;;;6243093;23;20008;-69
2022/12/19 02:12:42;;;;;;;10.38;2.78;;;;;;;;;;6243037;23;20062;-69
2022/12/19 02:15:10;;;;;;;17.10;3.03;;;;;;;;;;6244564;22;20401;-69
2022/12/19 02:17:40;;;;;;;13.25;4.13;;;;;;;;;;6244871;22;20004;-69
2022/12/19 02:20:25;;;;;;;15.13;3.70;;;;;;;;;;6242547;23;20042;-69
2022/12/19 02:23:02;;;;;;;13.25;3.83;;;;;;;;;;6242899;23;20065;-69
2022/12/19 02:25:34;;;;;;;9.88;3.72;;;;;;;;;;6242965;23;20086;-69
2022/12/19 02:28:00;;;;;;;15.63;3.28;;;;;;;;;;6243133;23;19996;-69
2022/12/19 02:30:28;;;;;;;13.32;3.38;;;;;;;;;;6242956;23;20032;-69
2022/12/19 02:32:59;;;;;;;11.35;2.97;;;;;;;;;;6244793;22;20014;-69
2022/12/19 02:35:30;;;;;;;16.42;3.92;;;;;;;;;;6242220;23;20012;-69
2022/12/19 02:38:18;;;;;;;10.23;2.63;;;;;;;;;;6242948;23;20008;-69
2022/12/19 02:40:53;;;;;;;14.40;2.42;;;;;;;;;;6243157;23;20058;-69
2022/12/19 02:43:21;;;;;;;24.77;3.20;;;;;;;;;;6242021;23;20008;-69
2022/12/19 02:45:51;;;;;;;12.65;3.40;;;;;;;;;;6243297;23;20000;-69
2022/12/19 02:48:18;;;;;;;14.18;2.97;;;;;;;;;;6242224;23;20462;-69
2022/12/19 02:50:45;;;;;;;15.00;3.08;;;;;;;;;;6243025;23;20007;-69
2022/12/19 02:53:12;;;;;;;22.35;3.60;;;;;;;;;;6244223;23;20015;-69
2022/12/19 02:55:50;;;;;;;13.63;3.00;;;;;;;;;;6242872;23;20005;-69
2022/12/19 02:58:26;;;;;;;14.98;3.00;;;;;;;;;;6243075;23;20105;-69
2022/12/19 03:01:14;;;;;;;9.85;2.60;;;;;;;;;;6242377;23;20103;-69
2022/12/19 03:03:48;;;;;;;20.10;3.13;;;;;;;;;;6223500;23;20051;-69
2022/12/19 03:06:18;;;;;;;18.70;3.30;;;;;;;;;;6242509;23;20005;-69
2022/12/19 03:08:48;;;;;;;16.17;3.40;;;;;;;;;;6242942;23;20028;-69
2022/12/19 03:11:15;;;;;;;17.15;3.15;;;;;;;;;;6242698;23;20015;-69
2022/12/19 03:13:45;;;;;;;11.88;2.50;;;;;;;;;;6244541;22;20016;-69
2022/12/19 03:16:12;;;;;;;7.22;2.40;;;;;;;;;;6242734;23;20350;-68
2022/12/19 03:18:39;;;;;;;13.73;2.72;;;;;;;;;;6241896;23;20015;-68
2022/12/19 03:21:14;;;;;;;13.23;2.45;;;;;;;;;;6244375;23;20091;-68
2022/12/19 03:23:41;;;;;;;11.90;3.17;;;;;;;;;;6244436;22;20086;-68
2022/12/19 03:26:10;;;;;;;16.48;2.90;;;;;;;;;;6244397;23;20007;-68
2022/12/19 03:28:40;;;;;;;21.80;2.63;;;;;;;;;;6244176;23;20381;-68
2022/12/19 03:31:08;;;;;;;8.52;2.90;;;;;;;;;;6244308;23;20350;-68
2022/12/19 03:33:35;;;;;;;16.75;2.53;;;;;;;;;;6243993;22;20128;-68
2022/12/19 03:36:04;;;;;;;13.10;2.75;;;;;;;;;;6244344;23;20095;-68
2022/12/19 03:38:31;;;;;;;12.73;2.70;;;;;;;;;;6243984;23;20005;-68
2022/12/19 03:40:58;;;;;;;7.25;2.28;;;;;;;;;;6244325;23;20004;-68
2022/12/19 03:43:25;;;;;;;13.38;2.85;;;;;;;;;;6243301;23;20027;-68
2022/12/19 03:46:09;;;;;;;13.15;2.75;;;;;;;;;;6242401;23;20000;-68
2022/12/19 03:48:41;;;;;;;12.80;2.97;;;;;;;;;;6244080;23;20031;-68
2022/12/19 03:51:07;;;;;;;9.40;3.33;;;;;;;;;;6243940;23;20083;-68
2022/12/19 03:53:45;;;;;;;9.57;2.55;;;;;;;;;;6243449;23;20013;-68
2022/12/19 03:56:11;;;;;;;18.40;3.00;;;;;;;;;;6246041;23;20036;-68
2022/12/19 03:58:39;;;;;;;11.98;3.50;;;;;;;;;;6245475;23;20004;-68
2022/12/19 04:01:06;;;;;;;16.98;2.63;;;;;;;;;;6245833;23;20008;-68
2022/12/19 04:03:32;;;;;;;16.52;3.75;;;;;;;;;;6245351;23;20354;-68
2022/12/19 04:06:00;;;;;;;13.82;3.22;;;;;;;;;;6245936;22;20000;-68
2022/12/19 04:08:27;;;;;;;20.45;3.20;;;;;;;;;;6245288;23;20338;-68
2022/12/19 04:10:59;;;;;;;16.27;2.95;;;;;;;;;;6245929;23;20012;-68
2022/12/19 04:13:25;;;;;;;;;;;;;;;;;;6246142;23;20095;-68
2022/12/19 04:16:03;;;;;;;14.70;2.63;;;;;;;;;;6245591;23;19934;-68
2022/12/19 04:18:30;;;;;;;11.15;2.80;;;;;;;;;;6243940;23;20004;-68
2022/12/19 04:21:05;;;;;;;15.23;3.45;;;;;;;;;;6246069;23;20079;-68
2022/12/19 04:23:33;;;;;;;14.68;3.60;;;;;;;;;;6245429;23;20019;-68
2022/12/19 04:26:02;;;;;;;14.25;3.30;;;;;;;;;;6245645;23;20471;-68
2022/12/19 04:28:35;;;;;;;17.42;2.92;;;;;;;;;;6245259;23;20008;-68
2022/12/19 04:31:02;;;;;;;15.25;2.75;;;;;;;;;;6245595;23;20024;-68
2022/12/19 04:33:28;;;;;;;8.65;2.47;;;;;;;;;;6245635;22;20385;-68
2022/12/19 04:35:54;;;;;;;15.85;2.53;;;;;;;;;;6245604;23;20419;-69
2022/12/19 04:38:21;;;;;;;14.50;2.63;;;;;;;;;;6245772;23;20001;-69
2022/12/19 04:40:47;;;;;;;8.95;2.60;;;;;;;;;;6245161;23;20019;-69
2022/12/19 04:43:13;;;;;;;10.70;2.00;;;;;;;;;;6245580;23;20104;-69
2022/12/19 04:45:42;;;;;;;10.40;2.30;;;;;;;;;;6244899;23;20088;-69
2022/12/19 04:48:08;;;;;;;11.73;2.35;;;;;;;;;;6244152;23;20016;-69
2022/12/19 04:50:35;;;;;;;6.95;1.88;;;;;;;;;;6245271;23;20006;-69
2022/12/19 04:53:01;;;;;;;6.53;2.20;;;;;;;;;;6245597;23;20434;-69
2022/12/19 04:55:27;;;;;;;8.15;2.50;;;;;;;;;;6245198;23;20058;-69
2022/12/19 04:57:53;;;;;;;8.27;2.00;;;;;;;;;;6245368;23;20039;-69
2022/12/19 05:00:19;;;;;;;12.27;1.83;;;;;;;;;;6245012;23;20004;-69
2022/12/19 05:02:45;;;;;;;7.75;1.88;;;;;;;;;;6245186;23;20004;-69
2022/12/19 05:05:11;;;;;;;6.80;2.20;;;;;;;;;;6243716;23;20026;-69
2022/12/19 05:07:39;;;;;;;6.60;1.90;;;;;;;;;;6244317;23;20004;-69
2022/12/19 05:10:06;;;;;;;5.78;1.92;;;;;;;;;;6245514;22;20383;-69
2022/12/19 05:12:32;;;;;;;5.88;1.80;;;;;;;;;;6244968;23;20086;-69
2022/12/19 05:14:58;;;;;;;6.03;2.30;;;;;;;;;;6245227;23;20012;-69
2022/12/19 05:17:24;;;;;;;7.75;1.95;;;;;;;;;;6245037;23;20004;-69
2022/12/19 05:19:50;;;;;;;6.43;2.22;;;;;;;;;;6245087;23;20011;-69
2022/12/19 05:22:17;;;;;;;4.90;2.22;;;;;;;;;;6245739;22;20370;-69
2022/12/19 05:24:43;;;;;;;5.60;2.13;;;;;;;;;;6244840;23;20034;-69
2022/12/19 05:27:09;;;;;;;12.38;2.22;;;;;;;;;;6245233;22;20042;-69
2022/12/19 05:29:35;;;;;;;9.73;2.65;;;;;;;;;;6244692;23;20004;-69
2022/12/19 05:32:01;;;;;;;15.32;2.90;;;;;;;;;;6244973;23;20007;-69
2022/12/19 05:34:28;;;;;;;6.10;2.58;;;;;;;;;;6243437;23;20016;-69
2022/12/19 05:36:54;;;;;;;13.38;2.70;;;;;;;;;;6244779;23;20008;-69
2022/12/19 05:39:20;;;;;;;15.07;2.58;;;;;;;;;;6245075;23;20051;-69
2022/12/19 05:41:46;;;;;;;11.48;2.58;;;;;;;;;;6244420;23;20000;-69
2022/12/19 05:44:12;;;;;;;13.80;2.80;;;;;;;;;;6245187;23;20008;-69
2022/12/19 05:46:38;;;;;;;15.60;2.88;;;;;;;;;;6244854;23;20453;-69
2022/12/19 05:49:04;;;;;;;13.85;2.53;;;;;;;;;;6244755;23;20000;-69
2022/12/19 05:51:31;;;;;;;7.40;1.98;;;;;;;;;;6244445;23;19996;-69
2022/12/19 05:53:57;;;;;;;11.68;2.28;;;;;;;;;;6244603;23;20086;-69
2022/12/19 05:56:23;;;;;;;10.32;2.15;;;;;;;;;;6244343;23;20035;-69
2022/12/19 05:58:49;;;;;;;8.35;2.00;;;;;;;;;;6244198;23;20014;-69
2022/12/19 06:01:20;;;;;;;9.63;2.60;;;;;;;;;;6244322;23;20078;-69
2022/12/19 06:03:47;;;;;;;4.45;1.67;;;;;;;;;;6244311;22;20095;-69
2022/12/19 06:06:15;;;;;;;6.88;2.40;;;;;;;;;;6244749;23;20092;-69
2022/12/19 06:08:41;;;;;;;7.68;2.08;;;;;;;;;;6244285;23;20030;-69
2022/12/19 06:11:08;;;;;;;5.78;1.70;;;;;;;;;;6244574;23;19996;-68
2022/12/19 06:13:35;;;;;;;5.38;1.80;;;;;;;;;;6244144;23;20008;-69
2022/12/19 06:16:02;;;;;;;6.97;2.13;;;;;;;;;;6244118;23;20442;-69
2022/12/19 06:18:28;;;;;;;12.63;1.80;;;;;;;;;;6244709;23;20008;-69
2022/12/19 06:20:58;;;;;;;6.32;2.08;;;;;;;;;;6243161;23;20097;-69
2022/12/19 06:23:25;;;;;;;4.22;1.60;;;;;;;;;;6244248;23;20008;-69
2022/12/19 06:25:51;;;;;;;7.55;1.70;;;;;;;;;;6243471;23;20422;-69
2022/12/19 06:28:17;;;;;;;6.85;1.67;;;;;;;;;;6244693;23;20530;-69
2022/12/19 06:30:43;;;;;;;5.45;1.58;;;;;;;;;;6244676;23;20083;-69
2022/12/19 06:33:09;;;;;;;1.58;1.17;;;;;;;;;;6244764;23;20008;-69
2022/12/19 06:35:36;;;;;;;4.40;1.30;;;;;;;;;;6244591;23;20053;-69
2022/12/19 06:38:02;;;;;;;5.07;1.48;;;;;;;;;;6244072;22;20015;-69
2022/12/19 06:43:13;;;;;;;2.20;1.15;;;;;;;;;;6244640;23;20018;-69
2022/12/19 06:45:39;;;;;;;5.05;1.05;;;;;;;;;;6244501;23;20003;-69
2022/12/19 06:48:05;;;;;;;4.95;1.23;;;;;;;;;;6244192;23;20005;-69
2022/12/19 06:50:31;;;;;;;4.05;1.30;;;;;;;;;;6242750;23;20000;-69
2022/12/19 06:52:57;;;;;;;7.40;1.40;;;;;;;;;;6244073;23;20008;-69
2022/12/19 06:55:23;;;;;;;4.40;1.40;;;;;;;;;;6244039;23;20058;-69
2022/12/19 06:57:49;;;;;;;3.33;1.38;;;;;;;;;;6244466;23;20057;-69
2022/12/19 07:00:15;;;;;;;2.05;1.02;;;;;;;;;;6243184;23;20000;-69
2022/12/19 07:02:44;;;;;;;4.68;1.33;;;;;;;;;;6243893;23;20004;-69
2022/12/19 07:05:10;;;;;;;4.63;1.20;;;;;;;;;;6244512;23;20007;-69
2022/12/19 07:07:36;;;;;;;5.00;1.23;;;;;;;;;;6243452;23;20012;-69
2022/12/19 07:10:03;;;;;;;3.88;1.27;;;;;;;;;;6243098;23;20420;-69
2022/12/19 07:12:29;;;;;;;3.85;1.20;;;;;;;;;;6244626;23;20342;-69
2022/12/19 07:14:55;;;;;;;2.72;1.20;;;;;;;;;;6244100;23;20174;-69
2022/12/19 07:17:23;;;;;;;2.42;1.48;;;;;;;;;;6244608;23;20008;-70
2022/12/19 07:19:50;;;;;;;3.92;1.10;;;;;;;;;;6243333;23;20082;-69
2022/12/19 07:22:16;;;;;;;6.03;1.50;;;;;;;;;;6240799;23;20430;-71
2022/12/19 07:24:42;;;;;;;7.47;2.08;;;;;;;;;;6243368;23;20075;-69
2022/12/19 07:27:09;;;;;;;4.85;1.45;;;;;;;;;;6243674;23;20067;-69
2022/12/19 07:29:35;;;;;;;6.18;1.77;;;;;;;;;;6244482;23;20079;-69
2022/12/19 07:32:01;;;;;;;7.90;1.67;;;;;;;;;;6244725;23;20008;-69
2022/12/19 07:34:27;;;;;;;7.13;1.90;;;;;;;;;;6245471;23;20008;-69
2022/12/19 07:36:53;;;;;;;11.80;2.58;;;;;;;;;;6245837;23;20350;-69
2022/12/19 07:39:20;;;;;;;9.27;2.33;;;;;;;;;;6244969;23;20000;-69
2022/12/19 07:41:47;;;;;;;9.25;2.47;;;;;;;;;;6245234;22;20047;-69
2022/12/19 07:44:15;;;;;;;9.07;2.25;;;;;;;;;;6245672;22;20010;-69
2022/12/19 07:46:42;;;;;;;13.98;2.33;;;;;;;;;;6245623;22;20024;-69
2022/12/19 07:49:08;;;;;;;9.50;2.35;;;;;;;;;;6242806;23;20083;-70
2022/12/19 07:51:34;;;;;;;14.35;2.20;;;;;;;;;;6242466;23;20457;-69
2022/12/19 07:54:00;;;;;;;11.07;2.13;;;;;;;;;;6242474;23;20008;-69
2022/12/19 07:56:27;;;;;;;13.80;2.45;;;;;;;;;;6243118;23;20000;-69
2022/12/19 07:58:53;;;;;;;7.60;2.25;;;;;;;;;;6243451;23;20004;-69
2022/12/19 08:01:19;;;;;;;9.73;2.28;;;;;;;;;;6243223;22;20334;-69
2022/12/19 08:03:45;;;;;;;11.55;2.22;;;;;;;;;;6242513;23;20006;-69
2022/12/19 08:06:11;;;;;;;9.30;2.20;;;;;;;;;;6243490;23;20497;-69
2022/12/19 08:08:37;;;;;;;8.15;2.55;;;;;;;;;;6243138;23;20030;-69
2022/12/19 08:11:07;;;;;;;7.45;1.90;;;;;;;;;;6243486;23;20022;-69
2022/12/19 08:13:33;;;;;;;9.00;2.15;;;;;;;;;;6241634;23;20069;-69
2022/12/19 08:16:00;;;;;;;9.50;1.98;;;;;;;;;;6243227;23;20040;-70
2022/12/19 08:18:26;;;;;;;13.07;2.67;;;;;;;;;;6242697;23;20381;-69
2022/12/19 08:20:52;;;;;;;10.68;2.55;;;;;;;;;;6243730;23;20032;-69
2022/12/19 08:23:18;;;;;;;11.80;2.17;;;;;;;;;;6242727;22;20012;-69
2022/12/19 08:25:45;;;;;;;12.63;3.22;;;;;;;;;;6243252;23;19996;-69
2022/12/19 08:28:11;;;;;;;15.90;2.53;;;;;;;;;;6242733;23;20050;-68
2022/12/19 08:30:40;;;;;;;11.18;3.03;;;;;;;;;;6241970;23;20486;-69
2022/12/19 08:33:06;;;;;;;13.10;2.47;;;;;;;;;;6242752;23;20331;-69
2022/12/19 08:35:34;;;;;;;10.45;2.63;;;;;;;;;;6242334;23;20004;-69
2022/12/19 08:38:00;;;;;;;9.23;2.83;;;;;;;;;;6241636;22;20005;-69
2022/12/19 08:40:26;;;;;;;7.68;2.30;;;;;;;;;;6242137;23;20403;-68
2022/12/19 08:42:52;;;;;;;10.45;2.40;;;;;;;;;;6242622;23;20008;-68
2022/12/19 08:45:18;;;;;;;19.10;3.35;;;;;;;;;;6242647;23;20000;-68
2022/12/19 08:47:44;;;;;;;20.45;4.88;;;;;;;;;;6242964;23;20012;-68
2022/12/19 08:50:11;;;;;;;14.68;4.82;;;;;;;;;;6242960;23;19996;-68
2022/12/19 08:52:37;;;;;;;8.40;3.00;;;;;;;;;;6242441;23;20007;-68
2022/12/19 08:55:04;;;;;;;12.82;3.20;;;;;;;;;;6242381;23;20083;-68
2022/12/19 08:57:30;;;;;;;17.10;2.63;;;;;;;;;;6241030;23;20019;-68
2022/12/19 08:59:56;;;;;;;9.55;2.42;;;;;;;;;;6242067;23;20000;-69
2022/12/19 09:02:23;;;;;;;12.48;2.80;;;;;;;;;;6242067;23;20350;-68
2022/12/19 09:04:49;;;;;;;10.73;2.92;;;;;;;;;;6242315;22;20015;-68
2022/12/19 09:07:15;;;;;;;14.82;2.88;;;;;;;;;;6241709;23;20071;-68
2022/12/19 09:09:41;;;;;;;16.13;2.65;;;;;;;;;;6242197;23;20474;-69
2022/12/19 09:12:07;;;;;;;13.35;3.10;;;;;;;;;;6242775;23;20008;-69
2022/12/19 09:14:34;;;;;;;20.65;3.38;;;;;;;;;;6242235;23;20099;-69
2022/12/19 09:17:01;;;;;;;13.50;2.33;;;;;;;;;;6242546;23;20061;-68
2022/12/19 09:19:27;;;;;;;11.05;2.17;;;;;;;;;;6242476;23;20004;-68
2022/12/19 09:21:53;;;;;;;18.88;2.75;;;;;;;;;;6243752;23;20138;-68
2022/12/19 09:24:19;;;;;;;14.15;3.20;;;;;;;;;;6244200;23;20405;-68
2022/12/19 09:26:45;;;;;;;19.63;3.85;;;;;;;;;;6244459;23;20074;-68
2022/12/19 09:29:12;;;;;;;22.73;3.47;;;;;;;;;;6244693;23;19996;-68
2022/12/19 09:31:38;;;;;;;14.48;3.13;;;;;;;;;;6244447;23;20011;-68
2022/12/19 09:34:04;;;;;;;12.32;3.25;;;;;;;;;;6244086;23;20000;-68
2022/12/19 09:36:30;;;;;;;15.45;2.92;;;;;;;;;;6243909;23;20008;-68
2022/12/19 09:38:57;;;;;;;17.60;3.33;;;;;;;;;;6243996;23;20000;-68
2022/12/19 09:41:36;;;;;;;15.30;3.20;;;;;;;;;;6244500;23;20448;-68
2022/12/19 09:44:11;;;;;;;19.35;4.05;;;;;;;;;;6243588;23;20004;-68
2022/12/19 09:46:37;;;;;;;16.50;3.38;;;;;;;;;;6243464;23;20010;-68
2022/12/19 09:49:10;;;;;;;13.85;2.63;;;;;;;;;;6242760;23;20059;-68
2022/12/19 09:51:57;;;;;;;18.25;2.97;;;;;;;;;;6243458;23;20079;-68
2022/12/19 09:54:26;;;;;;;21.38;3.85;;;;;;;;;;6243195;23;20012;-68
2022/12/19 09:56:53;;;;;;;15.38;2.65;;;;;;;;;;6242477;23;20000;-68
2022/12/19 09:59:28;;;;;;;17.90;3.30;;;;;;;;;;6244123;23;20769;-68
2022/12/19 10:02:09;;;;;;;21.00;3.53;;;;;;;;;;6243934;23;20091;-68
2022/12/19 10:04:35;;;;;;;19.67;3.33;;;;;;;;;;6242669;23;20008;-68
2022/12/19 10:07:02;;;;;;;16.73;2.67;;;;;;;;;;6244182;23;20000;-67
2022/12/19 10:09:32;;;;;;;15.60;3.92;;;;;;;;;;6244291;23;20004;-67
2022/12/19 10:12:05;;;;;;;21.92;3.63;;;;;;;;;;6244103;23;20004;-68
2022/12/19 10:14:50;;;;;;;13.57;2.42;;;;;;;;;;6244829;22;20012;-67
2022/12/19 10:17:16;;;;;;;15.38;3.22;;;;;;;;;;6244081;23;20008;-68
2022/12/19 10:19:47;;;;;;;14.20;2.58;;;;;;;;;;6244586;23;20000;-68
2022/12/19 10:22:19;;;;;;;11.15;2.67;;;;;;;;;;6244977;23;20473;-67
2022/12/19 10:24:51;;;;;;;20.70;2.80;;;;;;;;;;6243064;23;20005;-67
2022/12/19 10:27:25;;;;;;;13.30;2.90;;;;;;;;;;6244663;23;20007;-67
2022/12/19 10:30:01;;;;;;;17.30;2.60;;;;;;;;;;6244631;23;20004;-67
2022/12/19 10:32:31;;;;;;;10.93;2.40;;;;;;;;;;6244417;23;20004;-67
2022/12/19 10:34:58;;;;;;;11.85;3.83;;;;;;;;;;6243441;23;20730;-67
2022/12/19 10:37:28;;;;;;;15.85;2.45;;;;;;;;;;6244208;22;20008;-67
2022/12/19 10:40:13;;;;;;;14.57;2.53;;;;;;;;;;6244378;23;20008;-67
2022/12/19 10:42:53;;;;;;;13.13;2.22;;;;;;;;;;6244951;22;20385;-67
2022/12/19 10:45:20;;;;;;;12.52;3.75;;;;;;;;;;6245066;23;20000;-66
2022/12/19 10:47:49;;;;;;;16.33;2.88;;;;;;;;;;6244468;23;20381;-68
2022/12/19 10:50:21;;;;;;;16.92;2.78;;;;;;;;;;6243892;23;20031;-68
2022/12/19 10:52:52;;;;;;;15.32;2.92;;;;;;;;;;6243930;23;20015;-68
2022/12/19 10:55:33;;;;;;;10.48;2.30;;;;;;;;;;6244479;23;20004;-68
2022/12/19 10:58:01;;;;;;;8.98;3.13;;;;;;;;;;6243907;23;20015;-68
2022/12/19 11:00:28;;;;;;;14.25;3.00;;;;;;;;;;6244609;22;20027;-68
2022/12/19 11:03:06;;;;;;;13.40;3.20;;;;;;;;;;6241962;22;20008;-68
2022/12/19 11:05:53;;;;;;;14.75;3.00;;;;;;;;;;6242705;23;20010;-67
2022/12/19 11:08:28;;;;;;;16.05;3.20;;;;;;;;;;6243001;23;20459;-67
2022/12/19 11:10:56;;;;;;;18.52;3.10;;;;;;;;;;6242982;23;20004;-67
2022/12/19 11:13:27;;;;;;;12.65;3.08;;;;;;;;;;6243111;23;20012;-67
2022/12/19 11:15:55;;;;;;;15.82;2.75;;;;;;;;;;6243393;22;20012;-67
2022/12/19 11:18:21;;;;;;;12.98;2.42;;;;;;;;;;6242960;23;20100;-67
2022/12/19 11:20:55;;;;;;;14.88;3.03;;;;;;;;;;6243226;23;20408;-67
2022/12/19 11:23:22;;;;;;;21.00;2.97;;;;;;;;;;6242960;23;20004;-67
2022/12/19 11:25:52;;;;;;;14.80;2.70;;;;;;;;;;6243372;23;20004;-67
2022/12/19 11:28:24;;;;;;;15.07;3.55;;;;;;;;;;6243018;22;20012;-67
2022/12/19 11:31:09;;;;;;;19.83;3.15;;;;;;;;;;6242634;22;20003;-67
2022/12/19 11:33:35;;;;;;;18.50;3.65;;;;;;;;;;6243234;22;20008;-67
2022/12/19 11:36:02;;;;;;;13.57;2.97;;;;;;;;;;6243202;23;20005;-67
2022/12/19 11:38:34;;;;;;;15.48;3.20;;;;;;;;;;6241776;23;20070;-67
2022/12/19 11:41:04;;;;;;;18.08;4.03;;;;;;;;;;6243614;22;20004;-67
2022/12/19 11:43:57;;;;;;;22.65;3.05;;;;;;;;;;6243495;23;20534;-67
2022/12/19 11:46:33;;;;;;;20.15;3.90;;;;;;;;;;6238518;23;20011;-67
2022/12/19 11:48:59;;;;;;;13.05;3.00;;;;;;;;;;6243423;22;20015;-67
2022/12/19 11:51:32;;;;;;;19.20;3.28;;;;;;;;;;6243297;23;20075;-67
2022/12/19 11:53:58;;;;;;;17.63;3.80;;;;;;;;;;6241687;23;20004;-67
2022/12/19 11:56:26;;;;;;;22.92;3.70;;;;;;;;;;6242130;23;20000;-67
2022/12/19 11:59:07;;;;;;;13.73;2.67;;;;;;;;;;6242688;22;20011;-67
2022/12/19 12:01:41;;;;;;;20.45;3.13;;;;;;;;;;6243359;23;20618;-67
2022/12/19 12:04:13;;;;;;;16.50;2.97;;;;;;;;;;6242509;23;20004;-67
2022/12/19 12:06:45;;;;;;;17.38;3.40;;;;;;;;;;6242911;23;20004;-67
2022/12/19 12:09:17;;;;;;;17.90;3.22;;;;;;;;;;6242035;23;20004;-67
2022/12/19 12:11:44;;;;;;;21.67;3.78;;;;;;;;;;6242011;23;20480;-67
2022/12/19 12:14:13;;;;;;;19.65;3.65;;;;;;;;;;6241946;23;20102;-66
2022/12/19 12:16:42;;;;;;;16.75;3.35;;;;;;;;;;6244249;22;20022;-67
2022/12/19 12:19:24;;;;;;;16.73;3.10;;;;;;;;;;6244520;23;19996;-67
2022/12/19 12:21:59;;;;;;;17.83;3.83;;;;;;;;;;6245060;23;20004;-67
2022/12/19 12:24:28;;;;;;;22.80;4.25;;;;;;;;;;6241729;23;20090;-67
2022/12/19 12:26:57;;;;;;;26.73;4.53;;;;;;;;;;6244389;23;20031;-67
2022/12/19 12:29:26;;;;;;;23.02;4.35;;;;;;;;;;6243224;23;20004;-67
2022/12/19 12:31:58;;;;;;;30.13;4.63;;;;;;;;;;6244222;23;20024;-64
2022/12/19 12:34:37;;;;;;;25.40;4.75;;;;;;;;;;6243877;23;20012;-67
2022/12/19 12:37:18;;;;;;;27.42;4.15;;;;;;;;;;6244799;23;20350;-67
2022/12/19 12:39:47;;;;;;;23.02;3.92;;;;;;;;;;6244159;23;20007;-67
2022/12/19 12:42:26;;;;;;;25.27;4.43;;;;;;;;;;6243525;23;20012;-67
2022/12/19 12:44:54;;;;;;;26.65;5.53;;;;;;;;;;6244507;23;20001;-67
2022/12/19 12:47:25;;;;;;;21.83;4.50;;;;;;;;;;6242234;23;20067;-67
2022/12/19 12:50:05;;;;;;;24.60;4.60;;;;;;;;;;6244213;23;20004;-66
2022/12/19 12:52:37;;;;;;;24.92;3.92;;;;;;;;;;6244387;23;20043;-66
2022/12/19 12:55:05;;;;;;;18.63;3.72;;;;;;;;;;6245511;23;20012;-66
2022/12/19 12:57:36;;;;;;;21.20;4.25;;;;;;;;;;6243250;23;20004;-66
2022/12/19 13:00:18;;;;;;;30.20;4.97;;;;;;;;;;6244938;23;20464;-66
2022/12/19 13:03:03;;;;;;;25.95;4.85;;;;;;;;;;6244196;22;20011;-66
2022/12/19 13:05:32;;;;;;;20.85;4.80;;;;;;;;;;6243638;23;20083;-66
2022/12/19 13:07:58;;;;;;;30.67;4.78;;;;;;;;;;6244253;23;20010;-67
2022/12/19 13:10:29;;;;;;;24.08;5.25;;;;;;;;;;6244445;23;20000;-66
2022/12/19 13:13:01;;;;;;;30.17;5.75;;;;;;;;;;6244804;23;20484;-67
2022/12/19 13:15:27;;;;;;;32.65;5.20;;;;;;;;;;6244632;23;20407;-67
2022/12/19 13:17:53;;;;;;;24.13;3.53;;;;;;;;;;6245192;23;20008;-66
2022/12/19 13:20:19;;;;;;;25.65;5.35;;;;;;;;;;6244929;23;20015;-67
2022/12/19 13:23:01;;;;;;;21.73;3.83;;;;;;;;;;6244851;23;20004;-67
2022/12/19 13:25:50;;;;;;;32.13;5.67;;;;;;;;;;6244698;23;20054;-67
2022/12/19 13:28:19;;;;;;;30.75;5.72;;;;;;;;;;6228789;23;20099;-67
2022/12/19 13:31:01;;;;;;;24.25;4.65;;;;;;;;;;6242784;23;20243;-66
2022/12/19 13:34:03;;;;;;;18.95;4.45;;;;;;;;;;6244083;23;20381;-67
2022/12/19 13:36:48;;;;;;;17.50;3.40;;;;;;;;;;6119758;23;20017;-65
2022/12/19 13:39:23;;;;;;;26.85;3.72;;;;;;;;;;6119271;23;20041;-66
2022/12/19 13:44:50;;;;;;;20.58;3.97;;;;;;;;;;6120630;23;20006;-66
2022/12/19 13:47:16;;;;;;;13.77;3.15;;;;;;;;;;6121727;23;20006;-66
2022/12/19 13:49:43;;;;;;;22.52;3.75;;;;;;;;;;6121040;23;20013;-66
2022/12/19 13:52:11;;;;;;;24.60;3.45;;;;;;;;;;6122120;23;20006;-66
2022/12/19 13:54:45;;;;;;;16.90;3.22;;;;;;;;;;6122069;23;20092;-66
2022/12/19 13:57:25;;;;;;;16.90;3.78;;;;;;;;;;6122827;23;20025;-66
2022/12/19 13:59:53;;;;;;;17.10;3.42;;;;;;;;;;6122494;23;20014;-67
2022/12/19 14:02:31;;;;;;;17.55;3.30;;;;;;;;;;6121820;23;20010;-67
2022/12/19 14:04:57;;;;;;;21.60;4.15;;;;;;;;;;6121513;23;20010;-67
2022/12/19 14:07:23;;;;;;;19.27;3.53;;;;;;;;;;6121825;23;19998;-67
2022/12/19 14:09:51;;;;;;;14.02;3.13;;;;;;;;;;6151269;23;20004;-67
2022/12/19 14:15:20;;;;;;;13.23;3.05;;;;;;;;;;6212263;23;20334;-67
2022/12/19 14:17:49;;;;;;;17.98;4.65;;;;;;;;;;6210890;23;20008;-67
2022/12/19 14:20:19;;;;;;;20.60;4.00;;;;;;;;;;6211196;23;20013;-67
2022/12/19 14:22:45;;;;;;;19.90;4.15;;;;;;;;;;6211875;23;20008;-67
2022/12/19 14:25:11;;;;;;;22.85;5.22;;;;;;;;;;6212556;23;19996;-67
2022/12/19 14:27:40;;;;;;;26.02;5.03;;;;;;;;;;6212517;23;20004;-67
2022/12/19 14:30:14;;;;;;;27.23;5.95;;;;;;;;;;6213710;23;20004;-67
2022/12/19 14:32:41;;;;;;;26.92;4.50;;;;;;;;;;6213890;23;20009;-67
2022/12/19 14:35:08;;;;;;;30.27;4.55;;;;;;;;;;6186734;23;20467;-68
2022/12/19 14:37:40;;;;;;;33.03;5.13;;;;;;;;;;6213255;23;20019;-68
2022/12/19 14:40:14;;;;;;;18.63;4.28;;;;;;;;;;6213352;23;20012;-68
2022/12/19 14:45:34;;;;;;;17.42;5.10;;;;;;;;;;6213697;23;20039;-67
2022/12/19 14:48:00;;;;;;;19.17;4.20;;;;;;;;;;6213182;23;20028;-67
2022/12/19 14:50:27;;;;;;;21.08;3.63;;;;;;;;;;6213353;23;20043;-67
2022/12/19 14:53:15;;;;;;;20.05;3.90;;;;;;;;;;6212557;23;20397;-66
2022/12/19 14:55:41;;;;;;;23.17;3.70;;;;;;;;;;6212173;23;20071;-67